Deal, New Jersey
Current Conditions -  °F | °C
As of 10:35 PM on Friday 31 Oct 2014 (Local Time) from KBLM Reporting Station
Overcast Overcast  
Wind Chill: 54°   Ceiling: 1700
Heat Index: 54°   Visibility: 10mi
Dew Point: 45°   Wind: 12mph
Humidity: 72%   Direction: 40°NE
Pressure: 29.84"   Gusts: 21mph
Location:  40.24°N, 74°W
Report Text: KBLM 010235Z AUTO 04010G18KT 10SM BKN017 OVC023 12/07 A2984 RMK AO1
Loading
Personal Weather Stations






























Interactive Weather Map New forecast layout! Learn more

10-Day Weather Forecast

Advertisements
Track Severe Weather on mobile